sensor_id;sensor_type;location;lat;lon;timestamp;pressure;altitude;pressure_sealevel;temperature;humidity
59757;BME280;45631;51.962;5.974;2023-07-13T00:00:10;101213.63;;;16.31;100.00
59757;BME280;45631;51.962;5.974;2023-07-13T00:02:38;101225.41;;;16.38;100.00
59757;BME280;45631;51.962;5.974;2023-07-13T00:05:07;101219.66;;;16.33;100.00
59757;BME280;45631;51.962;5.974;2023-07-13T00:07:36;101219.78;;;16.32;100.00
59757;BME280;45631;51.962;5.974;2023-07-13T00:10:05;101218.59;;;16.25;100.00
59757;BME280;45631;51.962;5.974;2023-07-13T00:12:36;101219.00;;;16.20;100.00
59757;BME280;45631;51.962;5.974;2023-07-13T00:15:10;101220.78;;;16.19;100.00
59757;BME280;45631;51.962;5.974;2023-07-13T00:17:40;101230.13;;;16.14;100.00
59757;BME280;45631;51.962;5.974;2023-07-13T00:20:11;101226.88;;;16.10;100.00
59757;BME280;45631;51.962;5.974;2023-07-13T00:22:40;101231.19;;;16.11;100.00
59757;BME280;45631;51.962;5.974;2023-07-13T00:25:10;101231.72;;;16.05;100.00
59757;BME280;45631;51.962;5.974;2023-07-13T00:27:41;101229.84;;;16.17;100.00
59757;BME280;45631;51.962;5.974;2023-07-13T00:30:12;101231.19;;;16.11;100.00
59757;BME280;45631;51.962;5.974;2023-07-13T00:32:40;101230.88;;;16.04;100.00
59757;BME280;45631;51.962;5.974;2023-07-13T00:35:09;101224.72;;;16.04;100.00
59757;BME280;45631;51.962;5.974;2023-07-13T00:37:37;101222.06;;;16.04;100.00
59757;BME280;45631;51.962;5.974;2023-07-13T00:40:10;101234.16;;;15.97;100.00
59757;BME280;45631;51.962;5.974;2023-07-13T00:42:39;101242.75;;;15.89;100.00
59757;BME280;45631;51.962;5.974;2023-07-13T00:48:18;101239.59;;;15.95;100.00
59757;BME280;45631;51.962;5.974;2023-07-13T00:50:51;101233.94;;;15.88;100.00
59757;BME280;45631;51.962;5.974;2023-07-13T00:53:20;101244.44;;;15.90;100.00
59757;BME280;45631;51.962;5.974;2023-07-13T00:55:50;101228.19;;;15.83;100.00
59757;BME280;45631;51.962;5.974;2023-07-13T00:58:19;101232.88;;;15.80;100.00
59757;BME280;45631;51.962;5.974;2023-07-13T01:00:48;101227.66;;;15.78;100.00
59757;BME280;45631;51.962;5.974;2023-07-13T01:03:19;101235.88;;;15.86;100.00
59757;BME280;45631;51.962;5.974;2023-07-13T01:05:49;101237.69;;;15.86;100.00
59757;BME280;45631;51.962;5.974;2023-07-13T01:08:18;101241.56;;;15.82;100.00
59757;BME280;45631;51.962;5.974;2023-07-13T01:10:54;101233.81;;;15.79;100.00
59757;BME280;45631;51.962;5.974;2023-07-13T01:13:24;101238.91;;;15.82;100.00
59757;BME280;45631;51.962;5.974;2023-07-13T01:15:55;101236.97;;;15.72;100.00
59757;BME280;45631;51.962;5.974;2023-07-13T01:18:27;101236.97;;;15.72;100.00
59757;BME280;45631;51.962;5.974;2023-07-13T01:20:58;101237.22;;;15.69;100.00
59757;BME280;45631;51.962;5.974;2023-07-13T01:23:28;101238.56;;;15.64;100.00
59757;BME280;45631;51.962;5.974;2023-07-13T01:25:57;101238.94;;;15.48;100.00
59757;BME280;45631;51.962;5.974;2023-07-13T01:28:26;101239.41;;;15.53;100.00
59757;BME280;45631;51.962;5.974;2023-07-13T01:30:56;101239.78;;;15.48;100.00
59757;BME280;45631;51.962;5.974;2023-07-13T01:33:25;101241.22;;;15.41;100.00
59757;BME280;45631;51.962;5.974;2023-07-13T01:35:53;101243.50;;;15.46;100.00
59757;BME280;45631;51.962;5.974;2023-07-13T01:38:25;101240.50;;;15.39;100.00
59757;BME280;45631;51.962;5.974;2023-07-13T01:40:54;101243.88;;;15.41;100.00
59757;BME280;45631;51.962;5.974;2023-07-13T01:43:22;101241.56;;;15.36;100.00
59757;BME280;45631;51.962;5.974;2023-07-13T01:45:53;101242.06;;;15.42;100.00
59757;BME280;45631;51.962;5.974;2023-07-13T01:48:35;101242.09;;;15.30;100.00
59757;BME280;45631;51.962;5.974;2023-07-13T01:51:03;101230.28;;;15.34;100.00
59757;BME280;45631;51.962;5.974;2023-07-13T01:53:33;101236.53;;;15.33;100.00
59757;BME280;45631;51.962;5.974;2023-07-13T01:56:01;101226.88;;;15.32;100.00
59757;BME280;45631;51.962;5.974;2023-07-13T01:58:29;101233.41;;;15.28;100.00
59757;BME280;45631;51.962;5.974;2023-07-13T02:00:57;101232.31;;;15.31;100.00
59757;BME280;45631;51.962;5.974;2023-07-13T02:03:28;101228.09;;;15.28;100.00
59757;BME280;45631;51.962;5.974;2023-07-13T02:05:57;101236.41;;;15.35;100.00
59757;BME280;45631;51.962;5.974;2023-07-13T02:08:26;101233.19;;;15.31;100.00
59757;BME280;45631;51.962;5.974;2023-07-13T02:10:55;101225.00;;;15.23;100.00
59757;BME280;45631;51.962;5.974;2023-07-13T02:13:24;101227.97;;;15.18;100.00
59757;BME280;45631;51.962;5.974;2023-07-13T02:15:52;101235.81;;;15.20;100.00
59757;BME280;45631;51.962;5.974;2023-07-13T02:18:20;101232.19;;;15.21;100.00
59757;BME280;45631;51.962;5.974;2023-07-13T02:20:48;101242.69;;;15.23;100.00
59757;BME280;45631;51.962;5.974;2023-07-13T02:23:17;101239.41;;;15.08;100.00
59757;BME280;45631;51.962;5.974;2023-07-13T02:25:45;101248.81;;;15.12;100.00
59757;BME280;45631;51.962;5.974;2023-07-13T02:28:15;101244.97;;;15.16;100.00
59757;BME280;45631;51.962;5.974;2023-07-13T02:30:43;101245.09;;;15.14;100.00
59757;BME280;45631;51.962;5.974;2023-07-13T02:33:11;101244.59;;;15.09;100.00
59757;BME280;45631;51.962;5.974;2023-07-13T02:35:39;101248.09;;;15.10;100.00
59757;BME280;45631;51.962;5.974;2023-07-13T02:38:07;101245.47;;;15.10;100.00
59757;BME280;45631;51.962;5.974;2023-07-13T02:40:36;101244.84;;;15.06;100.00
59757;BME280;45631;51.962;5.974;2023-07-13T02:43:05;101242.31;;;15.04;100.00
59757;BME280;45631;51.962;5.974;2023-07-13T02:45:34;101246.78;;;15.04;100.00
59757;BME280;45631;51.962;5.974;2023-07-13T02:48:03;101247.38;;;15.08;100.00
59757;BME280;45631;51.962;5.974;2023-07-13T02:50:31;101251.84;;;15.07;100.00
59757;BME280;45631;51.962;5.974;2023-07-13T02:52:59;101248.81;;;15.00;100.00
59757;BME280;45631;51.962;5.974;2023-07-13T02:55:27;101249.44;;;15.04;100.00
59757;BME280;45631;51.962;5.974;2023-07-13T02:57:56;101249.66;;;15.01;100.00
59757;BME280;45631;51.962;5.974;2023-07-13T03:00:24;101257.59;;;15.01;100.00
59757;BME280;45631;51.962;5.974;2023-07-13T03:02:54;101254.22;;;14.99;100.00
59757;BME280;45631;51.962;5.974;2023-07-13T03:05:24;101251.09;;;14.94;100.00
59757;BME280;45631;51.962;5.974;2023-07-13T03:07:52;101260.84;;;14.93;100.00
59757;BME280;45631;51.962;5.974;2023-07-13T03:10:20;101262.75;;;14.91;100.00
59757;BME280;45631;51.962;5.974;2023-07-13T03:12:48;101259.53;;;14.87;100.00
59757;BME280;45631;51.962;5.974;2023-07-13T03:15:17;101264.69;;;14.89;100.00
59757;BME280;45631;51.962;5.974;2023-07-13T03:17:45;101265.66;;;14.88;100.00
59757;BME280;45631;51.962;5.974;2023-07-13T03:20:15;101272.28;;;14.94;100.00
59757;BME280;45631;51.962;5.974;2023-07-13T03:22:43;101275.28;;;14.89;100.00
59757;BME280;45631;51.962;5.974;2023-07-13T03:25:11;101274.78;;;14.84;100.00
59757;BME280;45631;51.962;5.974;2023-07-13T03:27:40;101273.84;;;14.85;100.00
59757;BME280;45631;51.962;5.974;2023-07-13T03:30:12;101276.69;;;14.82;100.00
59757;BME280;45631;51.962;5.974;2023-07-13T03:32:40;101278.13;;;14.75;100.00
59757;BME280;45631;51.962;5.974;2023-07-13T03:35:09;101274.28;;;14.79;100.00
59757;BME280;45631;51.962;5.974;2023-07-13T03:37:39;101274.03;;;14.82;100.00
59757;BME280;45631;51.962;5.974;2023-07-13T03:40:12;101275.38;;;14.76;100.00
59757;BME280;45631;51.962;5.974;2023-07-13T03:42:40;101280.91;;;14.73;100.00
59757;BME280;45631;51.962;5.974;2023-07-13T03:45:09;101273.47;;;14.78;100.00
59757;BME280;45631;51.962;5.974;2023-07-13T03:47:37;101286.81;;;14.77;100.00
59757;BME280;45631;51.962;5.974;2023-07-13T03:50:06;101285.75;;;14.79;100.00
59757;BME280;45631;51.962;5.974;2023-07-13T03:52:34;101290.91;;;14.81;100.00
59757;BME280;45631;51.962;5.974;2023-07-13T03:55:05;101291.63;;;14.83;100.00
59757;BME280;45631;51.962;5.974;2023-07-13T03:57:35;101302.22;;;14.83;100.00
59757;BME280;45631;51.962;5.974;2023-07-13T04:00:07;101297.78;;;14.83;100.00
59757;BME280;45631;51.962;5.974;2023-07-13T04:02:36;101287.78;;;14.87;100.00
59757;BME280;45631;51.962;5.974;2023-07-13T04:05:06;101291.13;;;14.78;100.00
59757;BME280;45631;51.962;5.974;2023-07-13T04:07:34;101295.22;;;14.82;100.00
59757;BME280;45631;51.962;5.974;2023-07-13T04:10:05;101290.19;;;14.79;100.00
59757;BME280;45631;51.962;5.974;2023-07-13T04:12:33;101297.41;;;14.77;100.00
59757;BME280;45631;51.962;5.974;2023-07-13T04:15:01;101297.63;;;14.74;100.00
59757;BME280;45631;51.962;5.974;2023-07-13T04:17:30;101306.41;;;14.74;100.00
59757;BME280;45631;51.962;5.974;2023-07-13T04:19:58;101300.75;;;14.79;100.00
59757;BME280;45631;51.962;5.974;2023-07-13T04:22:27;101304.88;;;14.83;100.00
59757;BME280;45631;51.962;5.974;2023-07-13T04:24:55;101299.19;;;14.76;100.00
59757;BME280;45631;51.962;5.974;2023-07-13T04:27:24;101307.25;;;14.75;100.00
59757;BME280;45631;51.962;5.974;2023-07-13T04:29:52;101301.63;;;14.79;100.00
59757;BME280;45631;51.962;5.974;2023-07-13T04:32:21;101316.66;;;14.79;100.00
59757;BME280;45631;51.962;5.974;2023-07-13T04:34:49;101304.16;;;14.81;100.00
59757;BME280;45631;51.962;5.974;2023-07-13T04:37:21;101313.56;;;14.85;100.00
59757;BME280;45631;51.962;5.974;2023-07-13T04:39:49;101310.53;;;14.90;100.00
59757;BME280;45631;51.962;5.974;2023-07-13T04:42:17;101309.84;;;14.87;100.00
59757;BME280;45631;51.962;5.974;2023-07-13T04:44:49;101310.19;;;14.94;100.00
59757;BME280;45631;51.962;5.974;2023-07-13T04:47:18;101315.47;;;14.94;100.00
59757;BME280;45631;51.962;5.974;2023-07-13T04:49:46;101315.75;;;15.02;100.00
59757;BME280;45631;51.962;5.974;2023-07-13T04:52:14;101319.50;;;15.00;100.00
59757;BME280;45631;51.962;5.974;2023-07-13T04:54:42;101322.72;;;15.03;100.00
59757;BME280;45631;51.962;5.974;2023-07-13T04:57:11;101322.41;;;15.08;100.00
59757;BME280;45631;51.962;5.974;2023-07-13T04:59:39;101326.81;;;15.08;100.00
59757;BME280;45631;51.962;5.974;2023-07-13T05:02:08;101327.94;;;15.16;100.00
59757;BME280;45631;51.962;5.974;2023-07-13T05:04:40;101329.28;;;15.22;100.00
59757;BME280;45631;51.962;5.974;2023-07-13T05:07:11;101331.44;;;15.28;100.00
59757;BME280;45631;51.962;5.974;2023-07-13T05:09:39;101342.16;;;15.27;100.00
59757;BME280;45631;51.962;5.974;2023-07-13T05:12:08;101331.69;;;15.25;100.00
59757;BME280;45631;51.962;5.974;2023-07-13T05:14:37;101336.38;;;15.33;100.00
59757;BME280;45631;51.962;5.974;2023-07-13T05:17:05;101343.50;;;15.44;100.00
59757;BME280;45631;51.962;5.974;2023-07-13T05:19:35;101351.47;;;15.44;100.00
59757;BME280;45631;51.962;5.974;2023-07-13T05:22:03;101345.78;;;15.48;100.00
59757;BME280;45631;51.962;5.974;2023-07-13T05:24:31;101356.06;;;15.53;100.00
59757;BME280;45631;51.962;5.974;2023-07-13T05:27:00;101356.16;;;15.51;100.00
59757;BME280;45631;51.962;5.974;2023-07-13T05:29:28;101359.66;;;15.63;100.00
59757;BME280;45631;51.962;5.974;2023-07-13T05:31:56;101357.72;;;15.77;100.00
59757;BME280;45631;51.962;5.974;2023-07-13T05:34:24;101360.66;;;15.85;100.00
59757;BME280;45631;51.962;5.974;2023-07-13T05:36:54;101365.22;;;15.94;100.00
59757;BME280;45631;51.962;5.974;2023-07-13T05:39:26;101358.97;;;15.95;100.00
59757;BME280;45631;51.962;5.974;2023-07-13T05:41:54;101365.09;;;15.96;100.00
59757;BME280;45631;51.962;5.974;2023-07-13T05:44:22;101365.34;;;15.93;100.00
59757;BME280;45631;51.962;5.974;2023-07-13T05:46:50;101368.84;;;15.93;100.00
59757;BME280;45631;51.962;5.974;2023-07-13T05:49:18;101371.72;;;16.01;100.00
59757;BME280;45631;51.962;5.974;2023-07-13T05:51:47;101375.19;;;16.02;100.00
59757;BME280;45631;51.962;5.974;2023-07-13T05:54:16;101370.97;;;16.11;100.00
59757;BME280;45631;51.962;5.974;2023-07-13T05:56:44;101378.34;;;16.18;100.00
59757;BME280;45631;51.962;5.974;2023-07-13T05:59:13;101380.97;;;16.30;100.00
59757;BME280;45631;51.962;5.974;2023-07-13T06:01:41;101384.66;;;16.38;100.00
59757;BME280;45631;51.962;5.974;2023-07-13T06:04:09;101382.88;;;16.39;100.00
59757;BME280;45631;51.962;5.974;2023-07-13T06:06:37;101385.19;;;16.32;100.00
59757;BME280;45631;51.962;5.974;2023-07-13T06:09:06;101384.72;;;16.16;100.00
59757;BME280;45631;51.962;5.974;2023-07-13T06:11:35;101392.19;;;16.33;100.00
59757;BME280;45631;51.962;5.974;2023-07-13T06:14:03;101388.63;;;16.44;100.00
59757;BME280;45631;51.962;5.974;2023-07-13T06:16:31;101392.47;;;16.51;100.00
59757;BME280;45631;51.962;5.974;2023-07-13T06:18:59;101396.19;;;16.60;100.00
59757;BME280;45631;51.962;5.974;2023-07-13T06:21:28;101388.91;;;16.73;100.00
59757;BME280;45631;51.962;5.974;2023-07-13T06:23:59;101389.94;;;16.82;100.00
59757;BME280;45631;51.962;5.974;2023-07-13T06:26:27;101401.28;;;16.84;100.00
59757;BME280;45631;51.962;5.974;2023-07-13T06:28:57;101411.19;;;16.82;100.00
59757;BME280;45631;51.962;5.974;2023-07-13T06:31:26;101409.75;;;16.89;100.00
59757;BME280;45631;51.962;5.974;2023-07-13T06:33:54;101405.22;;;17.01;100.00
59757;BME280;45631;51.962;5.974;2023-07-13T06:36:22;101406.44;;;16.97;100.00
59757;BME280;45631;51.962;5.974;2023-07-13T06:38:50;101405.69;;;17.06;100.00
59757;BME280;45631;51.962;5.974;2023-07-13T06:41:18;101408.41;;;17.16;100.00
59757;BME280;45631;51.962;5.974;2023-07-13T06:43:46;101411.44;;;17.33;100.00
59757;BME280;45631;51.962;5.974;2023-07-13T06:46:16;101412.22;;;17.45;100.00
59757;BME280;45631;51.962;5.974;2023-07-13T06:48:44;101418.59;;;17.53;100.00
59757;BME280;45631;51.962;5.974;2023-07-13T06:51:13;101412.59;;;17.61;100.00
59757;BME280;45631;51.962;5.974;2023-07-13T06:53:41;101412.94;;;17.78;100.00
59757;BME280;45631;51.962;5.974;2023-07-13T06:56:10;101420.59;;;17.92;100.00
59757;BME280;45631;51.962;5.974;2023-07-13T06:58:38;101420.63;;;18.02;100.00
59757;BME280;45631;51.962;5.974;2023-07-13T07:01:06;101420.50;;;18.03;100.00
59757;BME280;45631;51.962;5.974;2023-07-13T07:03:36;101414.72;;;17.98;100.00
59757;BME280;45631;51.962;5.974;2023-07-13T07:06:12;101421.53;;;18.12;100.00
59757;BME280;45631;51.962;5.974;2023-07-13T07:08:42;101429.94;;;18.17;100.00
59757;BME280;45631;51.962;5.974;2023-07-13T07:11:14;101429.13;;;18.36;100.00
59757;BME280;45631;51.962;5.974;2023-07-13T07:13:42;101432.94;;;18.44;100.00
59757;BME280;45631;51.962;5.974;2023-07-13T07:16:11;101428.63;;;18.52;100.00
59757;BME280;45631;51.962;5.974;2023-07-13T07:18:41;101428.63;;;18.52;100.00
59757;BME280;45631;51.962;5.974;2023-07-13T07:21:09;101436.06;;;18.58;100.00
59757;BME280;45631;51.962;5.974;2023-07-13T07:23:38;101434.25;;;18.79;100.00
59757;BME280;45631;51.962;5.974;2023-07-13T07:26:06;101433.84;;;19.03;100.00
59757;BME280;45631;51.962;5.974;2023-07-13T07:28:36;101433.16;;;19.11;100.00
59757;BME280;45631;51.962;5.974;2023-07-13T07:31:07;101441.00;;;19.22;100.00
59757;BME280;45631;51.962;5.974;2023-07-13T07:33:38;101445.91;;;19.36;100.00
59757;BME280;45631;51.962;5.974;2023-07-13T07:36:07;101440.97;;;19.41;100.00
59757;BME280;45631;51.962;5.974;2023-07-13T07:38:41;101445.59;;;19.39;100.00
59757;BME280;45631;51.962;5.974;2023-07-13T07:41:10;101439.53;;;19.57;100.00
59757;BME280;45631;51.962;5.974;2023-07-13T07:43:43;101440.94;;;19.61;100.00
59757;BME280;45631;51.962;5.974;2023-07-13T07:46:11;101441.88;;;19.80;100.00
59757;BME280;45631;51.962;5.974;2023-07-13T07:48:40;101442.31;;;19.65;100.00
59757;BME280;45631;51.962;5.974;2023-07-13T07:51:10;101444.13;;;19.84;100.00
59757;BME280;45631;51.962;5.974;2023-07-13T07:53:38;101436.00;;;20.04;100.00
59757;BME280;45631;51.962;5.974;2023-07-13T07:56:06;101442.94;;;20.24;100.00
59757;BME280;45631;51.962;5.974;2023-07-13T07:58:37;101438.78;;;20.40;100.00
59757;BME280;45631;51.962;5.974;2023-07-13T08:01:08;101432.75;;;20.38;100.00
59757;BME280;45631;51.962;5.974;2023-07-13T08:03:39;101427.41;;;20.56;100.00
59757;BME280;45631;51.962;5.974;2023-07-13T08:06:12;101432.56;;;20.67;100.00
59757;BME280;45631;51.962;5.974;2023-07-13T08:09:00;101428.19;;;20.66;100.00
59757;BME280;45631;51.962;5.974;2023-07-13T08:11:31;101433.19;;;20.79;100.00
59757;BME280;45631;51.962;5.974;2023-07-13T08:14:02;101434.78;;;20.90;100.00
59757;BME280;45631;51.962;5.974;2023-07-13T08:16:32;101432.56;;;20.85;100.00
59757;BME280;45631;51.962;5.974;2023-07-13T08:19:00;101432.56;;;21.03;100.00
59757;BME280;45631;51.962;5.974;2023-07-13T08:21:30;101443.44;;;21.28;100.00
59757;BME280;45631;51.962;5.974;2023-07-13T08:23:58;101440.69;;;21.38;100.00
59757;BME280;45631;51.962;5.974;2023-07-13T08:26:26;101427.78;;;21.33;100.00
59757;BME280;45631;51.962;5.974;2023-07-13T08:28:55;101434.63;;;21.54;100.00
59757;BME280;45631;51.962;5.974;2023-07-13T08:31:23;101439.41;;;21.68;100.00
59757;BME280;45631;51.962;5.974;2023-07-13T08:33:51;101430.38;;;21.69;100.00
59757;BME280;45631;51.962;5.974;2023-07-13T08:36:19;101435.31;;;21.90;100.00
59757;BME280;45631;51.962;5.974;2023-07-13T08:38:49;101430.41;;;22.12;100.00
59757;BME280;45631;51.962;5.974;2023-07-13T08:41:18;101428.28;;;22.32;100.00
59757;BME280;45631;51.962;5.974;2023-07-13T08:43:48;101434.72;;;22.48;100.00
59757;BME280;45631;51.962;5.974;2023-07-13T08:46:19;101435.91;;;22.53;100.00
59757;BME280;45631;51.962;5.974;2023-07-13T08:48:51;101429.03;;;22.08;100.00
59757;BME280;45631;51.962;5.974;2023-07-13T08:51:37;101424.84;;;22.56;100.00
59757;BME280;45631;51.962;5.974;2023-07-13T08:54:19;101426.06;;;22.87;100.00
59757;BME280;45631;51.962;5.974;2023-07-13T08:56:50;101428.00;;;22.43;100.00
59757;BME280;45631;51.962;5.974;2023-07-13T08:59:23;101424.53;;;22.59;100.00
59757;BME280;45631;51.962;5.974;2023-07-13T09:02:16;101416.66;;;22.58;100.00
59757;BME280;45631;51.962;5.974;2023-07-13T09:04:51;101423.94;;;22.31;100.00
59757;BME280;45631;51.962;5.974;2023-07-13T09:07:29;101422.94;;;22.32;100.00
59757;BME280;45631;51.962;5.974;2023-07-13T09:10:12;101420.22;;;22.24;100.00
59757;BME280;45631;51.962;5.974;2023-07-13T09:12:50;101420.94;;;22.34;100.00
59757;BME280;45631;51.962;5.974;2023-07-13T09:15:26;101418.63;;;22.39;100.00
59757;BME280;45631;51.962;5.974;2023-07-13T09:18:03;101427.69;;;22.55;100.00
59757;BME280;45631;51.962;5.974;2023-07-13T09:20:34;101434.38;;;22.51;100.00
59757;BME280;45631;51.962;5.974;2023-07-13T09:23:09;101437.41;;;22.56;100.00
59757;BME280;45631;51.962;5.974;2023-07-13T09:25:42;101436.59;;;22.64;100.00
59757;BME280;45631;51.962;5.974;2023-07-13T09:28:17;101439.28;;;22.88;100.00
59757;BME280;45631;51.962;5.974;2023-07-13T09:30:51;101436.44;;;23.31;100.00
59757;BME280;45631;51.962;5.974;2023-07-13T09:33:21;101439.03;;;23.72;100.00
59757;BME280;45631;51.962;5.974;2023-07-13T09:35:50;101429.22;;;24.04;100.00
59757;BME280;45631;51.962;5.974;2023-07-13T09:38:19;101422.22;;;23.95;100.00
59757;BME280;45631;51.962;5.974;2023-07-13T09:41:17;101429.56;;;23.53;100.00
59757;BME280;45631;51.962;5.974;2023-07-13T09:44:07;101438.78;;;23.51;100.00
59757;BME280;45631;51.962;5.974;2023-07-13T09:46:43;101444.16;;;23.18;100.00
59757;BME280;45631;51.962;5.974;2023-07-13T09:49:13;101453.41;;;23.15;100.00
59757;BME280;45631;51.962;5.974;2023-07-13T09:51:42;101461.22;;;22.84;100.00
59757;BME280;45631;51.962;5.974;2023-07-13T09:54:19;101465.41;;;22.78;100.00
59757;BME280;45631;51.962;5.974;2023-07-13T09:56:54;101460.75;;;22.80;100.00
59757;BME280;45631;51.962;5.974;2023-07-13T09:59:26;101454.03;;;22.84;100.00
59757;BME280;45631;51.962;5.974;2023-07-13T10:01:55;101466.22;;;22.45;100.00
59757;BME280;45631;51.962;5.974;2023-07-13T10:04:28;101467.13;;;22.28;100.00
59757;BME280;45631;51.962;5.974;2023-07-13T10:07:05;101462.50;;;22.04;100.00
59757;BME280;45631;51.962;5.974;2023-07-13T10:09:53;101463.00;;;21.99;100.00
59757;BME280;45631;51.962;5.974;2023-07-13T10:12:24;101464.81;;;21.99;100.00
59757;BME280;45631;51.962;5.974;2023-07-13T10:14:55;101455.22;;;22.22;100.00
59757;BME280;45631;51.962;5.974;2023-07-13T10:17:43;101465.47;;;21.92;100.00
59757;BME280;45631;51.962;5.974;2023-07-13T10:20:12;101467.72;;;22.14;100.00
59757;BME280;45631;51.962;5.974;2023-07-13T10:22:45;101469.88;;;22.10;100.00
59757;BME280;45631;51.962;5.974;2023-07-13T10:25:19;101472.41;;;22.46;100.00
59757;BME280;45631;51.962;5.974;2023-07-13T10:27:52;101472.78;;;22.68;100.00
59757;BME280;45631;51.962;5.974;2023-07-13T10:30:24;101470.66;;;22.88;100.00
59757;BME280;45631;51.962;5.974;2023-07-13T10:32:59;101472.31;;;22.97;100.00
59757;BME280;45631;51.962;5.974;2023-07-13T10:35:29;101463.47;;;23.13;100.00
59757;BME280;45631;51.962;5.974;2023-07-13T10:38:04;101462.75;;;23.60;100.00
59757;BME280;45631;51.962;5.974;2023-07-13T10:40:37;101468.63;;;23.56;100.00
59757;BME280;45631;51.962;5.974;2023-07-13T10:43:18;101480.19;;;23.65;100.00
59757;BME280;45631;51.962;5.974;2023-07-13T10:45:47;101479.28;;;24.05;100.00
59757;BME280;45631;51.962;5.974;2023-07-13T10:48:17;101484.34;;;23.92;100.00
59757;BME280;45631;51.962;5.974;2023-07-13T10:50:49;101476.13;;;23.93;100.00
59757;BME280;45631;51.962;5.974;2023-07-13T10:53:21;101511.84;;;23.86;100.00
59757;BME280;45631;51.962;5.974;2023-07-13T10:55:59;101508.41;;;23.52;100.00
59757;BME280;45631;51.962;5.974;2023-07-13T10:58:32;101516.28;;;23.37;100.00
59757;BME280;45631;51.962;5.974;2023-07-13T11:01:07;101505.00;;;22.92;100.00
59757;BME280;45631;51.962;5.974;2023-07-13T11:03:46;101506.09;;;22.57;100.00
59757;BME280;45631;51.962;5.974;2023-07-13T11:06:30;101500.94;;;22.80;100.00
59757;BME280;45631;51.962;5.974;2023-07-13T11:09:18;101499.66;;;23.09;100.00
59757;BME280;45631;51.962;5.974;2023-07-13T11:11:46;101503.53;;;23.39;100.00
59757;BME280;45631;51.962;5.974;2023-07-13T11:14:35;101497.28;;;23.72;100.00
59757;BME280;45631;51.962;5.974;2023-07-13T11:17:24;101491.38;;;24.01;100.00
59757;BME280;45631;51.962;5.974;2023-07-13T11:20:20;101496.59;;;23.86;100.00
59757;BME280;45631;51.962;5.974;2023-07-13T11:22:50;101497.31;;;23.55;100.00
59757;BME280;45631;51.962;5.974;2023-07-13T11:25:29;101491.13;;;23.38;100.00
59757;BME280;45631;51.962;5.974;2023-07-13T11:28:22;101503.34;;;23.41;100.00
59757;BME280;45631;51.962;5.974;2023-07-13T11:31:02;101494.66;;;23.31;100.00
59757;BME280;45631;51.962;5.974;2023-07-13T11:33:55;101498.69;;;23.26;100.00
59757;BME280;45631;51.962;5.974;2023-07-13T11:36:30;101501.16;;;23.61;100.00
59757;BME280;45631;51.962;5.974;2023-07-13T11:39:02;101501.50;;;23.58;100.00
59757;BME280;45631;51.962;5.974;2023-07-13T11:41:35;101501.25;;;24.01;100.00
59757;BME280;45631;51.962;5.974;2023-07-13T11:44:11;101502.69;;;24.20;100.00
59757;BME280;45631;51.962;5.974;2023-07-13T11:46:44;101503.34;;;24.30;100.00
59757;BME280;45631;51.962;5.974;2023-07-13T11:49:17;101507.72;;;24.31;100.00
59757;BME280;45631;51.962;5.974;2023-07-13T11:51:50;101509.13;;;24.02;100.00
59757;BME280;45631;51.962;5.974;2023-07-13T11:54:26;101510.00;;;24.42;100.00
59757;BME280;45631;51.962;5.974;2023-07-13T11:56:59;101506.72;;;24.24;100.00
59757;BME280;45631;51.962;5.974;2023-07-13T11:59:30;101500.69;;;24.61;100.00
59757;BME280;45631;51.962;5.974;2023-07-13T12:02:14;101503.91;;;25.11;100.00
59757;BME280;45631;51.962;5.974;2023-07-13T12:04:44;101500.84;;;25.14;100.00
59757;BME280;45631;51.962;5.974;2023-07-13T12:07:15;101504.91;;;25.10;100.00
59757;BME280;45631;51.962;5.974;2023-07-13T12:09:44;101510.66;;;24.44;100.00
59757;BME280;45631;51.962;5.974;2023-07-13T12:12:16;101508.78;;;24.13;100.00
59757;BME280;45631;51.962;5.974;2023-07-13T12:14:45;101512.75;;;24.26;100.00
59757;BME280;45631;51.962;5.974;2023-07-13T12:17:19;101520.22;;;24.07;100.00
59757;BME280;45631;51.962;5.974;2023-07-13T12:19:48;101517.56;;;23.99;100.00
59757;BME280;45631;51.962;5.974;2023-07-13T12:22:19;101512.88;;;23.93;100.00
59757;BME280;45631;51.962;5.974;2023-07-13T12:24:51;101516.41;;;23.69;100.00
59757;BME280;45631;51.962;5.974;2023-07-13T12:27:23;101512.38;;;23.81;100.00
59757;BME280;45631;51.962;5.974;2023-07-13T12:29:56;101513.38;;;23.88;100.00
59757;BME280;45631;51.962;5.974;2023-07-13T12:32:27;101505.78;;;24.48;100.00
59757;BME280;45631;51.962;5.974;2023-07-13T12:35:13;101508.41;;;24.88;100.00
59757;BME280;45631;51.962;5.974;2023-07-13T12:37:43;101506.69;;;24.95;100.00
59757;BME280;45631;51.962;5.974;2023-07-13T12:40:13;101502.19;;;24.64;100.00
59757;BME280;45631;51.962;5.974;2023-07-13T12:42:42;101499.03;;;24.84;100.00
59757;BME280;45631;51.962;5.974;2023-07-13T12:45:18;101502.34;;;25.17;100.00
59757;BME280;45631;51.962;5.974;2023-07-13T12:47:49;101500.00;;;25.52;100.00
59757;BME280;45631;51.962;5.974;2023-07-13T12:50:20;101495.03;;;25.94;100.00
59757;BME280;45631;51.962;5.974;2023-07-13T12:52:51;101484.47;;;26.59;100.00
59757;BME280;45631;51.962;5.974;2023-07-13T12:55:21;101484.84;;;26.04;100.00
59757;BME280;45631;51.962;5.974;2023-07-13T12:57:55;101492.72;;;26.72;100.00
59757;BME280;45631;51.962;5.974;2023-07-13T13:00:28;101494.69;;;26.63;100.00
59757;BME280;45631;51.962;5.974;2023-07-13T13:03:05;101499.09;;;26.49;100.00